sensor_id;sensor_type;location;lat;lon;timestamp;P1;durP1;ratioP1;P2;durP2;ratioP2
25449;SDS011;13371;52.080;5.624;2024-01-16T00:00:21;2.92;;;1.30;;
25449;SDS011;13371;52.080;5.624;2024-01-16T00:02:47;7.68;;;1.40;;
25449;SDS011;13371;52.080;5.624;2024-01-16T00:05:13;2.88;;;0.90;;
25449;SDS011;13371;52.080;5.624;2024-01-16T00:07:39;7.95;;;1.60;;
25449;SDS011;13371;52.080;5.624;2024-01-16T00:10:06;3.22;;;1.30;;
25449;SDS011;13371;52.080;5.624;2024-01-16T00:12:32;1.88;;;1.10;;
25449;SDS011;13371;52.080;5.624;2024-01-16T00:14:58;2.92;;;0.98;;
25449;SDS011;13371;52.080;5.624;2024-01-16T00:17:23;4.20;;;1.30;;
25449;SDS011;13371;52.080;5.624;2024-01-16T00:19:49;3.63;;;1.20;;
25449;SDS011;13371;52.080;5.624;2024-01-16T00:22:15;5.68;;;0.80;;
25449;SDS011;13371;52.080;5.624;2024-01-16T00:24:40;11.50;;;1.67;;
25449;SDS011;13371;52.080;5.624;2024-01-16T00:27:06;15.55;;;1.85;;
25449;SDS011;13371;52.080;5.624;2024-01-16T00:29:31;6.22;;;1.10;;
25449;SDS011;13371;52.080;5.624;2024-01-16T00:31:57;3.05;;;0.93;;
25449;SDS011;13371;52.080;5.624;2024-01-16T00:34:22;4.13;;;1.15;;
25449;SDS011;13371;52.080;5.624;2024-01-16T00:36:48;5.25;;;1.20;;
25449;SDS011;13371;52.080;5.624;2024-01-16T00:39:13;3.90;;;1.30;;
25449;SDS011;13371;52.080;5.624;2024-01-16T00:41:39;6.45;;;1.60;;
25449;SDS011;13371;52.080;5.624;2024-01-16T00:44:04;6.45;;;1.38;;
25449;SDS011;13371;52.080;5.624;2024-01-16T00:46:30;5.43;;;1.48;;
25449;SDS011;13371;52.080;5.624;2024-01-16T00:48:56;6.28;;;1.45;;
25449;SDS011;13371;52.080;5.624;2024-01-16T00:51:21;7.82;;;1.17;;
25449;SDS011;13371;52.080;5.624;2024-01-16T00:53:47;3.97;;;1.00;;
25449;SDS011;13371;52.080;5.624;2024-01-16T00:56:12;7.50;;;1.10;;
25449;SDS011;13371;52.080;5.624;2024-01-16T00:58:38;4.40;;;0.75;;
25449;SDS011;13371;52.080;5.624;2024-01-16T01:01:04;3.05;;;0.80;;
25449;SDS011;13371;52.080;5.624;2024-01-16T01:03:29;3.20;;;0.80;;
25449;SDS011;13371;52.080;5.624;2024-01-16T01:05:55;2.67;;;0.75;;
25449;SDS011;13371;52.080;5.624;2024-01-16T01:08:21;5.35;;;1.20;;
25449;SDS011;13371;52.080;5.624;2024-01-16T01:10:46;4.22;;;0.82;;
25449;SDS011;13371;52.080;5.624;2024-01-16T01:13:12;3.13;;;0.85;;
25449;SDS011;13371;52.080;5.624;2024-01-16T01:15:38;5.03;;;1.08;;
25449;SDS011;13371;52.080;5.624;2024-01-16T01:18:03;1.30;;;0.60;;
25449;SDS011;13371;52.080;5.624;2024-01-16T01:20:31;1.77;;;0.82;;
25449;SDS011;13371;52.080;5.624;2024-01-16T01:22:57;10.68;;;1.33;;
25449;SDS011;13371;52.080;5.624;2024-01-16T01:25:23;4.22;;;1.17;;
25449;SDS011;13371;52.080;5.624;2024-01-16T01:27:51;5.22;;;1.00;;
25449;SDS011;13371;52.080;5.624;2024-01-16T01:30:16;3.08;;;1.05;;
25449;SDS011;13371;52.080;5.624;2024-01-16T01:32:42;3.22;;;1.00;;
25449;SDS011;13371;52.080;5.624;2024-01-16T01:35:09;4.45;;;0.82;;
25449;SDS011;13371;52.080;5.624;2024-01-16T01:37:35;2.60;;;1.00;;
25449;SDS011;13371;52.080;5.624;2024-01-16T01:40:01;5.03;;;1.30;;
25449;SDS011;13371;52.080;5.624;2024-01-16T01:42:26;9.30;;;1.10;;
25449;SDS011;13371;52.080;5.624;2024-01-16T01:44:52;4.53;;;0.70;;
25449;SDS011;13371;52.080;5.624;2024-01-16T01:47:17;5.03;;;0.70;;
25449;SDS011;13371;52.080;5.624;2024-01-16T01:49:43;7.18;;;1.02;;
25449;SDS011;13371;52.080;5.624;2024-01-16T01:52:09;4.80;;;1.27;;
25449;SDS011;13371;52.080;5.624;2024-01-16T01:54:36;3.85;;;0.82;;
25449;SDS011;13371;52.080;5.624;2024-01-16T01:57:03;2.30;;;1.25;;
25449;SDS011;13371;52.080;5.624;2024-01-16T01:59:29;3.08;;;0.90;;
25449;SDS011;13371;52.080;5.624;2024-01-16T02:01:56;5.97;;;0.77;;
25449;SDS011;13371;52.080;5.624;2024-01-16T02:04:22;3.65;;;0.73;;
25449;SDS011;13371;52.080;5.624;2024-01-16T02:06:50;3.15;;;1.00;;
25449;SDS011;13371;52.080;5.624;2024-01-16T02:09:16;2.20;;;1.15;;
25449;SDS011;13371;52.080;5.624;2024-01-16T02:11:42;3.22;;;0.95;;
25449;SDS011;13371;52.080;5.624;2024-01-16T02:14:09;0.50;;;0.50;;
25449;SDS011;13371;52.080;5.624;2024-01-16T02:16:35;2.25;;;0.77;;
25449;SDS011;13371;52.080;5.624;2024-01-16T02:19:09;5.60;;;0.82;;
25449;SDS011;13371;52.080;5.624;2024-01-16T02:21:42;0.50;;;0.40;;
25449;SDS011;13371;52.080;5.624;2024-01-16T02:24:13;2.15;;;0.65;;
25449;SDS011;13371;52.080;5.624;2024-01-16T02:26:40;2.17;;;0.85;;
25449;SDS011;13371;52.080;5.624;2024-01-16T02:29:05;2.88;;;1.10;;
25449;SDS011;13371;52.080;5.624;2024-01-16T02:31:31;1.55;;;0.40;;
25449;SDS011;13371;52.080;5.624;2024-01-16T02:33:58;1.48;;;0.70;;
25449;SDS011;13371;52.080;5.624;2024-01-16T02:36:24;3.35;;;0.63;;
25449;SDS011;13371;52.080;5.624;2024-01-16T02:38:50;2.05;;;0.50;;
25449;SDS011;13371;52.080;5.624;2024-01-16T02:41:16;1.33;;;0.40;;
25449;SDS011;13371;52.080;5.624;2024-01-16T02:43:42;2.45;;;0.70;;
25449;SDS011;13371;52.080;5.624;2024-01-16T02:46:08;1.33;;;0.55;;
25449;SDS011;13371;52.080;5.624;2024-01-16T02:48:34;3.53;;;0.63;;
25449;SDS011;13371;52.080;5.624;2024-01-16T02:51:03;3.83;;;1.20;;
25449;SDS011;13371;52.080;5.624;2024-01-16T02:53:30;1.65;;;1.10;;
25449;SDS011;13371;52.080;5.624;2024-01-16T02:55:55;6.85;;;1.30;;
25449;SDS011;13371;52.080;5.624;2024-01-16T02:58:23;7.80;;;1.05;;
25449;SDS011;13371;52.080;5.624;2024-01-16T03:00:49;4.55;;;0.95;;
25449;SDS011;13371;52.080;5.624;2024-01-16T03:03:15;2.38;;;0.68;;
25449;SDS011;13371;52.080;5.624;2024-01-16T03:05:41;1.88;;;0.88;;
25449;SDS011;13371;52.080;5.624;2024-01-16T03:08:07;2.03;;;1.05;;
25449;SDS011;13371;52.080;5.624;2024-01-16T03:10:33;6.13;;;1.05;;
25449;SDS011;13371;52.080;5.624;2024-01-16T03:12:58;2.85;;;0.98;;
25449;SDS011;13371;52.080;5.624;2024-01-16T03:15:24;2.88;;;1.17;;
25449;SDS011;13371;52.080;5.624;2024-01-16T03:17:49;5.13;;;1.20;;
25449;SDS011;13371;52.080;5.624;2024-01-16T03:20:15;5.80;;;0.95;;
25449;SDS011;13371;52.080;5.624;2024-01-16T03:22:43;6.97;;;1.00;;
25449;SDS011;13371;52.080;5.624;2024-01-16T03:25:09;1.35;;;0.68;;
25449;SDS011;13371;52.080;5.624;2024-01-16T03:27:36;1.60;;;1.08;;
25449;SDS011;13371;52.080;5.624;2024-01-16T03:30:01;1.73;;;1.02;;
25449;SDS011;13371;52.080;5.624;2024-01-16T03:32:27;1.92;;;1.02;;
25449;SDS011;13371;52.080;5.624;2024-01-16T03:34:53;3.92;;;0.68;;
25449;SDS011;13371;52.080;5.624;2024-01-16T03:37:18;7.88;;;1.15;;
25449;SDS011;13371;52.080;5.624;2024-01-16T03:39:44;2.13;;;0.90;;
25449;SDS011;13371;52.080;5.624;2024-01-16T03:42:10;1.92;;;1.27;;
25449;SDS011;13371;52.080;5.624;2024-01-16T03:44:38;3.85;;;1.30;;
25449;SDS011;13371;52.080;5.624;2024-01-16T03:47:05;4.10;;;1.30;;
25449;SDS011;13371;52.080;5.624;2024-01-16T03:49:31;2.75;;;1.00;;
25449;SDS011;13371;52.080;5.624;2024-01-16T03:51:57;2.17;;;0.98;;
25449;SDS011;13371;52.080;5.624;2024-01-16T03:54:22;0.93;;;0.52;;
25449;SDS011;13371;52.080;5.624;2024-01-16T03:56:48;2.38;;;0.85;;
25449;SDS011;13371;52.080;5.624;2024-01-16T03:59:13;0.65;;;0.47;;
25449;SDS011;13371;52.080;5.624;2024-01-16T04:01:39;1.33;;;0.70;;
25449;SDS011;13371;52.080;5.624;2024-01-16T04:04:05;1.35;;;0.68;;
25449;SDS011;13371;52.080;5.624;2024-01-16T04:06:31;0.35;;;0.35;;
25449;SDS011;13371;52.080;5.624;2024-01-16T04:08:57;0.60;;;0.47;;
25449;SDS011;13371;52.080;5.624;2024-01-16T04:11:23;2.90;;;1.85;;
25449;SDS011;13371;52.080;5.624;2024-01-16T04:13:49;2.22;;;0.85;;
25449;SDS011;13371;52.080;5.624;2024-01-16T04:16:15;2.17;;;1.10;;
25449;SDS011;13371;52.080;5.624;2024-01-16T04:18:42;1.50;;;0.90;;
25449;SDS011;13371;52.080;5.624;2024-01-16T04:21:08;2.67;;;0.80;;
25449;SDS011;13371;52.080;5.624;2024-01-16T04:23:34;2.05;;;0.70;;
25449;SDS011;13371;52.080;5.624;2024-01-16T04:26:00;2.13;;;0.77;;
25449;SDS011;13371;52.080;5.624;2024-01-16T04:28:26;0.93;;;0.68;;
25449;SDS011;13371;52.080;5.624;2024-01-16T04:30:51;2.90;;;1.33;;
25449;SDS011;13371;52.080;5.624;2024-01-16T04:33:17;2.38;;;0.60;;
25449;SDS011;13371;52.080;5.624;2024-01-16T04:35:43;2.03;;;0.90;;
25449;SDS011;13371;52.080;5.624;2024-01-16T04:38:09;1.88;;;0.90;;
25449;SDS011;13371;52.080;5.624;2024-01-16T04:40:35;2.28;;;0.93;;
25449;SDS011;13371;52.080;5.624;2024-01-16T04:43:00;1.58;;;0.85;;
25449;SDS011;13371;52.080;5.624;2024-01-16T04:45:26;1.50;;;0.90;;
25449;SDS011;13371;52.080;5.624;2024-01-16T04:47:51;3.55;;;1.00;;
25449;SDS011;13371;52.080;5.624;2024-01-16T04:50:18;1.10;;;0.63;;
25449;SDS011;13371;52.080;5.624;2024-01-16T04:52:43;7.75;;;1.20;;
25449;SDS011;13371;52.080;5.624;2024-01-16T04:55:09;2.03;;;0.93;;
25449;SDS011;13371;52.080;5.624;2024-01-16T04:57:34;1.65;;;1.08;;
25449;SDS011;13371;52.080;5.624;2024-01-16T05:00:00;1.50;;;0.82;;
25449;SDS011;13371;52.080;5.624;2024-01-16T05:02:25;3.80;;;1.52;;
25449;SDS011;13371;52.080;5.624;2024-01-16T05:04:51;6.53;;;1.27;;
25449;SDS011;13371;52.080;5.624;2024-01-16T05:07:20;1.77;;;0.90;;
25449;SDS011;13371;52.080;5.624;2024-01-16T05:09:48;3.30;;;1.10;;
25449;SDS011;13371;52.080;5.624;2024-01-16T05:12:14;2.80;;;1.13;;
25449;SDS011;13371;52.080;5.624;2024-01-16T05:14:39;2.38;;;1.30;;
25449;SDS011;13371;52.080;5.624;2024-01-16T05:17:05;2.47;;;1.33;;
25449;SDS011;13371;52.080;5.624;2024-01-16T05:19:31;3.65;;;1.70;;
25449;SDS011;13371;52.080;5.624;2024-01-16T05:21:57;4.43;;;1.42;;
25449;SDS011;13371;52.080;5.624;2024-01-16T05:24:22;1.42;;;1.10;;
25449;SDS011;13371;52.080;5.624;2024-01-16T05:26:48;4.45;;;1.90;;
25449;SDS011;13371;52.080;5.624;2024-01-16T05:29:13;7.80;;;1.98;;
25449;SDS011;13371;52.080;5.624;2024-01-16T05:31:40;6.10;;;2.33;;
25449;SDS011;13371;52.080;5.624;2024-01-16T05:34:06;6.10;;;2.15;;
25449;SDS011;13371;52.080;5.624;2024-01-16T05:36:32;3.88;;;1.77;;
25449;SDS011;13371;52.080;5.624;2024-01-16T05:38:57;3.30;;;1.80;;
25449;SDS011;13371;52.080;5.624;2024-01-16T05:41:23;4.90;;;2.47;;
25449;SDS011;13371;52.080;5.624;2024-01-16T05:43:48;8.35;;;2.45;;
25449;SDS011;13371;52.080;5.624;2024-01-16T05:46:14;4.72;;;1.65;;
25449;SDS011;13371;52.080;5.624;2024-01-16T05:48:39;3.05;;;1.70;;
25449;SDS011;13371;52.080;5.624;2024-01-16T05:51:05;4.43;;;2.17;;
25449;SDS011;13371;52.080;5.624;2024-01-16T05:53:30;6.00;;;1.85;;
25449;SDS011;13371;52.080;5.624;2024-01-16T05:55:56;5.25;;;1.90;;
25449;SDS011;13371;52.080;5.624;2024-01-16T05:58:22;4.90;;;2.33;;
25449;SDS011;13371;52.080;5.624;2024-01-16T06:00:47;3.72;;;1.45;;
25449;SDS011;13371;52.080;5.624;2024-01-16T06:03:13;5.43;;;2.00;;
25449;SDS011;13371;52.080;5.624;2024-01-16T06:05:38;4.63;;;2.10;;
25449;SDS011;13371;52.080;5.624;2024-01-16T06:08:04;4.75;;;2.00;;
25449;SDS011;13371;52.080;5.624;2024-01-16T06:10:30;6.43;;;2.67;;
25449;SDS011;13371;52.080;5.624;2024-01-16T06:12:56;5.50;;;1.90;;
25449;SDS011;13371;52.080;5.624;2024-01-16T06:15:21;3.10;;;1.70;;
25449;SDS011;13371;52.080;5.624;2024-01-16T06:17:48;3.60;;;1.70;;
25449;SDS011;13371;52.080;5.624;2024-01-16T06:20:13;3.58;;;2.08;;
25449;SDS011;13371;52.080;5.624;2024-01-16T06:22:39;5.30;;;1.70;;
25449;SDS011;13371;52.080;5.624;2024-01-16T06:25:05;4.85;;;2.40;;
25449;SDS011;13371;52.080;5.624;2024-01-16T06:27:31;7.45;;;2.72;;
25449;SDS011;13371;52.080;5.624;2024-01-16T06:29:57;4.97;;;2.50;;
25449;SDS011;13371;52.080;5.624;2024-01-16T06:32:23;5.35;;;2.53;;
25449;SDS011;13371;52.080;5.624;2024-01-16T06:34:49;4.55;;;2.40;;
25449;SDS011;13371;52.080;5.624;2024-01-16T06:37:15;6.00;;;2.70;;
25449;SDS011;13371;52.080;5.624;2024-01-16T06:39:40;6.38;;;2.80;;
25449;SDS011;13371;52.080;5.624;2024-01-16T06:42:06;5.40;;;2.85;;
25449;SDS011;13371;52.080;5.624;2024-01-16T06:44:31;6.20;;;3.03;;
25449;SDS011;13371;52.080;5.624;2024-01-16T06:46:57;7.72;;;3.15;;
25449;SDS011;13371;52.080;5.624;2024-01-16T06:49:23;7.97;;;3.38;;
25449;SDS011;13371;52.080;5.624;2024-01-16T06:51:48;3.88;;;2.22;;
25449;SDS011;13371;52.080;5.624;2024-01-16T06:54:14;7.75;;;2.65;;
25449;SDS011;13371;52.080;5.624;2024-01-16T06:56:39;6.03;;;3.22;;
25449;SDS011;13371;52.080;5.624;2024-01-16T06:59:05;9.63;;;3.55;;
25449;SDS011;13371;52.080;5.624;2024-01-16T07:01:31;12.45;;;3.92;;
25449;SDS011;13371;52.080;5.624;2024-01-16T07:03:57;6.30;;;3.17;;
25449;SDS011;13371;52.080;5.624;2024-01-16T07:06:22;10.13;;;3.28;;
25449;SDS011;13371;52.080;5.624;2024-01-16T07:08:48;11.57;;;3.65;;
25449;SDS011;13371;52.080;5.624;2024-01-16T07:11:13;6.93;;;3.42;;
25449;SDS011;13371;52.080;5.624;2024-01-16T07:13:39;10.27;;;4.03;;
25449;SDS011;13371;52.080;5.624;2024-01-16T07:16:08;7.55;;;3.25;;
25449;SDS011;13371;52.080;5.624;2024-01-16T07:18:35;6.38;;;3.58;;
25449;SDS011;13371;52.080;5.624;2024-01-16T07:21:01;6.93;;;3.35;;
25449;SDS011;13371;52.080;5.624;2024-01-16T07:23:28;7.93;;;3.63;;
25449;SDS011;13371;52.080;5.624;2024-01-16T07:25:53;11.75;;;3.70;;
25449;SDS011;13371;52.080;5.624;2024-01-16T07:28:19;9.02;;;3.05;;
25449;SDS011;13371;52.080;5.624;2024-01-16T07:30:47;6.47;;;3.50;;
25449;SDS011;13371;52.080;5.624;2024-01-16T07:33:12;5.63;;;2.67;;
25449;SDS011;13371;52.080;5.624;2024-01-16T07:35:38;11.98;;;3.58;;
25449;SDS011;13371;52.080;5.624;2024-01-16T07:38:06;7.78;;;3.13;;
25449;SDS011;13371;52.080;5.624;2024-01-16T07:40:31;7.28;;;3.35;;
25449;SDS011;13371;52.080;5.624;2024-01-16T07:42:57;8.75;;;3.90;;
25449;SDS011;13371;52.080;5.624;2024-01-16T07:45:23;9.73;;;3.80;;
25449;SDS011;13371;52.080;5.624;2024-01-16T07:47:49;7.00;;;3.75;;
25449;SDS011;13371;52.080;5.624;2024-01-16T07:50:14;8.30;;;3.65;;
25449;SDS011;13371;52.080;5.624;2024-01-16T07:52:42;8.40;;;3.67;;
25449;SDS011;13371;52.080;5.624;2024-01-16T07:55:08;8.63;;;3.60;;
25449;SDS011;13371;52.080;5.624;2024-01-16T07:57:34;13.75;;;4.57;;
25449;SDS011;13371;52.080;5.624;2024-01-16T07:59:59;12.10;;;4.03;;
25449;SDS011;13371;52.080;5.624;2024-01-16T08:02:30;7.70;;;4.15;;
25449;SDS011;13371;52.080;5.624;2024-01-16T08:04:57;12.55;;;4.00;;
25449;SDS011;13371;52.080;5.624;2024-01-16T08:07:22;9.50;;;4.20;;
25449;SDS011;13371;52.080;5.624;2024-01-16T08:09:48;14.10;;;4.03;;
25449;SDS011;13371;52.080;5.624;2024-01-16T08:12:13;10.60;;;3.85;;
25449;SDS011;13371;52.080;5.624;2024-01-16T08:14:39;9.63;;;3.83;;
25449;SDS011;13371;52.080;5.624;2024-01-16T08:17:04;15.23;;;4.50;;
25449;SDS011;13371;52.080;5.624;2024-01-16T08:19:31;10.02;;;3.65;;
25449;SDS011;13371;52.080;5.624;2024-01-16T08:21:57;11.45;;;3.83;;
25449;SDS011;13371;52.080;5.624;2024-01-16T08:24:23;8.07;;;3.60;;
25449;SDS011;13371;52.080;5.624;2024-01-16T08:26:49;9.70;;;3.80;;
25449;SDS011;13371;52.080;5.624;2024-01-16T08:29:15;8.93;;;4.20;;
25449;SDS011;13371;52.080;5.624;2024-01-16T08:31:40;8.52;;;4.05;;
25449;SDS011;13371;52.080;5.624;2024-01-16T08:34:06;9.10;;;4.35;;
25449;SDS011;13371;52.080;5.624;2024-01-16T08:36:31;11.57;;;4.45;;
25449;SDS011;13371;52.080;5.624;2024-01-16T08:38:57;8.77;;;3.80;;
25449;SDS011;13371;52.080;5.624;2024-01-16T08:41:22;9.15;;;3.85;;
25449;SDS011;13371;52.080;5.624;2024-01-16T08:43:48;16.55;;;4.03;;
25449;SDS011;13371;52.080;5.624;2024-01-16T08:46:14;5.70;;;3.63;;
25449;SDS011;13371;52.080;5.624;2024-01-16T08:48:40;12.07;;;3.97;;
25449;SDS011;13371;52.080;5.624;2024-01-16T08:51:07;10.77;;;3.45;;
25449;SDS011;13371;52.080;5.624;2024-01-16T08:53:36;13.55;;;4.13;;
25449;SDS011;13371;52.080;5.624;2024-01-16T08:56:02;15.40;;;4.13;;
25449;SDS011;13371;52.080;5.624;2024-01-16T08:58:31;7.65;;;3.42;;
25449;SDS011;13371;52.080;5.624;2024-01-16T09:01:01;7.95;;;4.15;;
25449;SDS011;13371;52.080;5.624;2024-01-16T09:03:27;15.82;;;4.90;;
25449;SDS011;13371;52.080;5.624;2024-01-16T09:05:53;6.43;;;3.10;;
25449;SDS011;13371;52.080;5.624;2024-01-16T09:08:18;14.45;;;3.75;;
25449;SDS011;13371;52.080;5.624;2024-01-16T09:10:44;11.90;;;3.60;;
25449;SDS011;13371;52.080;5.624;2024-01-16T09:13:09;12.32;;;4.55;;
25449;SDS011;13371;52.080;5.624;2024-01-16T09:15:36;7.85;;;3.60;;
25449;SDS011;13371;52.080;5.624;2024-01-16T09:18:01;14.13;;;4.13;;
25449;SDS011;13371;52.080;5.624;2024-01-16T09:20:27;13.88;;;4.30;;
25449;SDS011;13371;52.080;5.624;2024-01-16T09:22:53;10.23;;;2.90;;
25449;SDS011;13371;52.080;5.624;2024-01-16T09:25:18;12.75;;;3.60;;
25449;SDS011;13371;52.080;5.624;2024-01-16T09:27:45;6.22;;;3.88;;
25449;SDS011;13371;52.080;5.624;2024-01-16T09:30:10;15.10;;;3.85;;
25449;SDS011;13371;52.080;5.624;2024-01-16T09:32:37;14.00;;;4.05;;
25449;SDS011;13371;52.080;5.624;2024-01-16T09:35:03;6.38;;;3.67;;
25449;SDS011;13371;52.080;5.624;2024-01-16T09:37:31;8.60;;;4.07;;
25449;SDS011;13371;52.080;5.624;2024-01-16T09:39:57;8.43;;;3.92;;
25449;SDS011;13371;52.080;5.624;2024-01-16T09:42:22;13.05;;;4.38;;
25449;SDS011;13371;52.080;5.624;2024-01-16T09:44:49;14.27;;;5.20;;
25449;SDS011;13371;52.080;5.624;2024-01-16T09:47:16;7.88;;;4.43;;
25449;SDS011;13371;52.080;5.624;2024-01-16T09:49:42;16.20;;;4.32;;
25449;SDS011;13371;52.080;5.624;2024-01-16T09:52:11;10.98;;;4.47;;
25449;SDS011;13371;52.080;5.624;2024-01-16T09:54:36;9.05;;;4.78;;
25449;SDS011;13371;52.080;5.624;2024-01-16T09:57:02;11.85;;;4.95;;
25449;SDS011;13371;52.080;5.624;2024-01-16T09:59:31;11.30;;;5.40;;
25449;SDS011;13371;52.080;5.624;2024-01-16T10:02:00;12.40;;;5.43;;
25449;SDS011;13371;52.080;5.624;2024-01-16T10:04:30;20.00;;;7.00;;
25449;SDS011;13371;52.080;5.624;2024-01-16T10:06:56;9.23;;;5.97;;
25449;SDS011;13371;52.080;5.624;2024-01-16T10:09:23;14.55;;;6.78;;
25449;SDS011;13371;52.080;5.624;2024-01-16T10:11:49;11.18;;;5.60;;
25449;SDS011;13371;52.080;5.624;2024-01-16T10:14:15;10.75;;;5.72;;
25449;SDS011;13371;52.080;5.624;2024-01-16T10:19:24;15.68;;;6.78;;
25449;SDS011;13371;52.080;5.624;2024-01-16T10:21:51;17.30;;;6.45;;
25449;SDS011;13371;52.080;5.624;2024-01-16T10:24:16;13.35;;;6.38;;
25449;SDS011;13371;52.080;5.624;2024-01-16T10:26:42;11.43;;;5.28;;
25449;SDS011;13371;52.080;5.624;2024-01-16T10:29:08;15.35;;;5.63;;
25449;SDS011;13371;52.080;5.624;2024-01-16T10:31:34;13.95;;;4.55;;
25449;SDS011;13371;52.080;5.624;2024-01-16T10:34:00;10.50;;;5.40;;
25449;SDS011;13371;52.080;5.624;2024-01-16T10:36:25;17.75;;;5.20;;
25449;SDS011;13371;52.080;5.624;2024-01-16T10:38:51;12.20;;;5.28;;
25449;SDS011;13371;52.080;5.624;2024-01-16T10:41:23;11.18;;;5.22;;
25449;SDS011;13371;52.080;5.624;2024-01-16T10:44:04;12.73;;;5.82;;
25449;SDS011;13371;52.080;5.624;2024-01-16T10:46:34;11.75;;;4.68;;
25449;SDS011;13371;52.080;5.624;2024-01-16T10:49:01;12.45;;;5.63;;
25449;SDS011;13371;52.080;5.624;2024-01-16T10:51:29;10.38;;;4.57;;
25449;SDS011;13371;52.080;5.624;2024-01-16T10:54:03;6.15;;;4.03;;
25449;SDS011;13371;52.080;5.624;2024-01-16T10:56:33;12.80;;;4.85;;
25449;SDS011;13371;52.080;5.624;2024-01-16T11:01:49;14.50;;;4.55;;
25449;SDS011;13371;52.080;5.624;2024-01-16T11:04:17;12.05;;;3.75;;
25449;SDS011;13371;52.080;5.624;2024-01-16T11:06:45;12.45;;;4.88;;
25449;SDS011;13371;52.080;5.624;2024-01-16T11:09:12;9.80;;;4.15;;
25449;SDS011;13371;52.080;5.624;2024-01-16T11:11:43;5.72;;;3.70;;
25449;SDS011;13371;52.080;5.624;2024-01-16T11:14:10;9.73;;;3.80;;
25449;SDS011;13371;52.080;5.624;2024-01-16T11:16:37;11.60;;;3.80;;
25449;SDS011;13371;52.080;5.624;2024-01-16T11:19:04;6.07;;;2.90;;
25449;SDS011;13371;52.080;5.624;2024-01-16T11:21:33;8.73;;;3.35;;
25449;SDS011;13371;52.080;5.624;2024-01-16T11:23:59;5.53;;;2.40;;
25449;SDS011;13371;52.080;5.624;2024-01-16T11:26:26;6.55;;;2.53;;
25449;SDS011;13371;52.080;5.624;2024-01-16T11:28:57;8.95;;;2.60;;
25449;SDS011;13371;52.080;5.624;2024-01-16T11:31:33;5.22;;;2.63;;
25449;SDS011;13371;52.080;5.624;2024-01-16T11:34:00;6.13;;;2.72;;
25449;SDS011;13371;52.080;5.624;2024-01-16T11:39:18;6.43;;;2.15;;
25449;SDS011;13371;52.080;5.624;2024-01-16T11:47:07;7.13;;;1.77;;
25449;SDS011;13371;52.080;5.624;2024-01-16T11:49:37;4.53;;;1.85;;
25449;SDS011;13371;52.080;5.624;2024-01-16T11:52:03;3.08;;;1.90;;
25449;SDS011;13371;52.080;5.624;2024-01-16T11:54:29;5.18;;;1.80;;
25449;SDS011;13371;52.080;5.624;2024-01-16T11:59:55;3.90;;;1.83;;
25449;SDS011;13371;52.080;5.624;2024-01-16T12:02:38;10.10;;;2.20;;
25449;SDS011;13371;52.080;5.624;2024-01-16T12:05:14;3.97;;;1.92;;
25449;SDS011;13371;52.080;5.624;2024-01-16T12:07:46;7.72;;;1.80;;
25449;SDS011;13371;52.080;5.624;2024-01-16T12:10:14;13.25;;;2.50;;
25449;SDS011;13371;52.080;5.624;2024-01-16T12:12:41;7.63;;;2.10;;
25449;SDS011;13371;52.080;5.624;2024-01-16T12:15:12;7.90;;;2.05;;
25449;SDS011;13371;52.080;5.624;2024-01-16T12:17:50;10.60;;;2.70;;
25449;SDS011;13371;52.080;5.624;2024-01-16T12:20:20;6.63;;;2.15;;
25449;SDS011;13371;52.080;5.624;2024-01-16T12:22:52;4.88;;;2.17;;
25449;SDS011;13371;52.080;5.624;2024-01-16T12:25:21;4.22;;;1.77;;
25449;SDS011;13371;52.080;5.624;2024-01-16T12:28:00;6.97;;;1.88;;
25449;SDS011;13371;52.080;5.624;2024-01-16T12:30:29;3.63;;;2.25;;
25449;SDS011;13371;52.080;5.624;2024-01-16T12:33:04;8.73;;;2.55;;
25449;SDS011;13371;52.080;5.624;2024-01-16T12:35:32;3.45;;;2.25;;
25449;SDS011;13371;52.080;5.624;2024-01-16T12:38:00;6.53;;;3.20;;
25449;SDS011;13371;52.080;5.624;2024-01-16T12:40:27;8.75;;;2.55;;
25449;SDS011;13371;52.080;5.624;2024-01-16T12:42:54;5.28;;;2.30;;
25449;SDS011;13371;52.080;5.624;2024-01-16T12:45:20;6.13;;;2.60;;
25449;SDS011;13371;52.080;5.624;2024-01-16T12:47:51;7.60;;;2.38;;
25449;SDS011;13371;52.080;5.624;2024-01-16T12:50:20;7.75;;;2.70;;
25449;SDS011;13371;52.080;5.624;2024-01-16T12:52:47;6.82;;;2.42;;
25449;SDS011;13371;52.080;5.624;2024-01-16T12:55:14;9.50;;;2.70;;
25449;SDS011;13371;52.080;5.624;2024-01-16T12:57:40;4.55;;;2.40;;
25449;SDS011;13371;52.080;5.624;2024-01-16T13:00:22;5.60;;;2.75;;
25449;SDS011;13371;52.080;5.624;2024-01-16T13:02:49;5.90;;;2.65;;
25449;SDS011;13371;52.080;5.624;2024-01-16T13:05:16;4.85;;;2.42;;
25449;SDS011;13371;52.080;5.624;2024-01-16T13:07:42;4.25;;;2.63;;
25449;SDS011;13371;52.080;5.624;2024-01-16T13:10:11;6.38;;;2.22;;
25449;SDS011;13371;52.080;5.624;2024-01-16T13:12:41;12.47;;;2.60;;
25449;SDS011;13371;52.080;5.624;2024-01-16T13:15:07;8.43;;;2.53;;
25449;SDS011;13371;52.080;5.624;2024-01-16T13:17:35;5.28;;;2.20;;
25449;SDS011;13371;52.080;5.624;2024-01-16T13:20:02;7.03;;;2.72;;
25449;SDS011;13371;52.080;5.624;2024-01-16T13:22:29;6.75;;;2.70;;
25449;SDS011;13371;52.080;5.624;2024-01-16T13:24:55;7.03;;;2.75;;
25449;SDS011;13371;52.080;5.624;2024-01-16T13:27:22;12.43;;;2.60;;
25449;SDS011;13371;52.080;5.624;2024-01-16T13:29:48;4.50;;;2.25;;
25449;SDS011;13371;52.080;5.624;2024-01-16T13:32:14;8.18;;;2.67;;
25449;SDS011;13371;52.080;5.624;2024-01-16T13:34:39;6.90;;;2.67;;
25449;SDS011;13371;52.080;5.624;2024-01-16T13:37:11;5.35;;;2.40;;
25449;SDS011;13371;52.080;5.624;2024-01-16T13:39:44;7.60;;;2.35;;
25449;SDS011;13371;52.080;5.624;2024-01-16T13:42:09;5.75;;;2.58;;
25449;SDS011;13371;52.080;5.624;2024-01-16T13:44:35;5.57;;;2.10;;
25449;SDS011;13371;52.080;5.624;2024-01-16T13:47:01;9.07;;;2.55;;
25449;SDS011;13371;52.080;5.624;2024-01-16T13:49:26;3.65;;;2.00;;
25449;SDS011;13371;52.080;5.624;2024-01-16T13:51:52;8.57;;;2.97;;
25449;SDS011;13371;52.080;5.624;2024-01-16T13:54:17;9.07;;;1.98;;
25449;SDS011;13371;52.080;5.624;2024-01-16T13:56:43;5.35;;;2.40;;
25449;SDS011;13371;52.080;5.624;2024-01-16T13:59:09;4.50;;;2.10;;
25449;SDS011;13371;52.080;5.624;2024-01-16T14:01:35;6.10;;;2.30;;
25449;SDS011;13371;52.080;5.624;2024-01-16T14:04:00;10.48;;;2.15;;
25449;SDS011;13371;52.080;5.624;2024-01-16T14:06:26;6.93;;;1.80;;
25449;SDS011;13371;52.080;5.624;2024-01-16T14:08:52;7.60;;;2.40;;
25449;SDS011;13371;52.080;5.624;2024-01-16T14:11:17;5.05;;;2.22;;
25449;SDS011;13371;52.080;5.624;2024-01-16T14:13:44;8.90;;;2.30;;
25449;SDS011;13371;52.080;5.624;2024-01-16T14:16:09;7.03;;;2.35;;
25449;SDS011;13371;52.080;5.624;2024-01-16T14:18:35;5.63;;;2.10;;
25449;SDS011;13371;52.080;5.624;2024-01-16T14:21:01;6.28;;;1.92;;
25449;SDS011;13371;52.080;5.624;2024-01-16T14:23:29;7.28;;;2.63;;
25449;SDS011;13371;52.080;5.624;2024-01-16T14:25:55;8.57;;;2.30;;
25449;SDS011;13371;52.080;5.624;2024-01-16T14:28:20;6.90;;;3.53;;
25449;SDS011;13371;52.080;5.624;2024-01-16T14:30:51;5.43;;;2.28;;
25449;SDS011;13371;52.080;5.624;2024-01-16T14:33:16;4.25;;;2.17;;
25449;SDS011;13371;52.080;5.624;2024-01-16T14:35:42;6.15;;;2.22;;
25449;SDS011;13371;52.080;5.624;2024-01-16T14:38:07;5.47;;;2.15;;
25449;SDS011;13371;52.080;5.624;2024-01-16T14:40:33;5.13;;;2.10;;
25449;SDS011;13371;52.080;5.624;2024-01-16T14:42:59;3.63;;;1.85;;
25449;SDS011;13371;52.080;5.624;2024-01-16T14:45:28;5.35;;;1.73;;
25449;SDS011;13371;52.080;5.624;2024-01-16T14:47:56;3.97;;;1.52;;
25449;SDS011;13371;52.080;5.624;2024-01-16T14:50:22;4.28;;;1.88;;
25449;SDS011;13371;52.080;5.624;2024-01-16T14:52:49;4.80;;;1.80;;
25449;SDS011;13371;52.080;5.624;2024-01-16T14:55:15;9.45;;;2.38;;
25449;SDS011;13371;52.080;5.624;2024-01-16T14:57:41;4.68;;;1.85;;